地図

経路データ

SID SEASON NUMBER BASIN SUBBASIN NAME ISO_TIME NATURE LAT LON WMO_WIND WMO_PRES WMO_AGENCY TRACK_TYPE DIST2LAND LANDFALL IFLAG USA_AGENCY USA_ATCF_ID USA_LAT USA_LON USA_RECORD USA_STATUS USA_WIND USA_PRES USA_SSHS USA_R34_NE USA_R34_SE USA_R34_SW USA_R34_NW USA_R50_NE USA_R50_SE USA_R50_SW USA_R50_NW USA_R64_NE USA_R64_SE USA_R64_SW USA_R64_NW USA_POCI USA_ROCI USA_RMW USA_EYE TOKYO_LAT TOKYO_LON TOKYO_GRADE TOKYO_WIND TOKYO_PRES TOKYO_R50_DIR TOKYO_R50_LONG TOKYO_R50_SHORT TOKYO_R30_DIR TOKYO_R30_LONG TOKYO_R30_SHORT TOKYO_LAND CMA_LAT CMA_LON CMA_CAT CMA_WIND CMA_PRES HKO_LAT HKO_LON HKO_CAT HKO_WIND HKO_PRES NEWDELHI_LAT NEWDELHI_LON NEWDELHI_GRADE NEWDELHI_WIND NEWDELHI_PRES NEWDELHI_CI NEWDELHI_DP NEWDELHI_POCI REUNION_LAT REUNION_LON REUNION_TYPE REUNION_WIND REUNION_PRES REUNION_TNUM REUNION_CI REUNION_RMW REUNION_R34_NE REUNION_R34_SE REUNION_R34_SW REUNION_R34_NW REUNION_R50_NE REUNION_R50_SE REUNION_R50_SW REUNION_R50_NW REUNION_R64_NE REUNION_R64_SE REUNION_R64_SW REUNION_R64_NW BOM_LAT BOM_LON BOM_TYPE BOM_WIND BOM_PRES BOM_TNUM BOM_CI BOM_RMW BOM_R34_NE BOM_R34_SE BOM_R34_SW BOM_R34_NW BOM_R50_NE BOM_R50_SE BOM_R50_SW BOM_R50_NW BOM_R64_NE BOM_R64_SE BOM_R64_SW BOM_R64_NW BOM_ROCI BOM_POCI BOM_EYE BOM_POS_METHOD BOM_PRES_METHOD NADI_LAT NADI_LON NADI_CAT NADI_WIND NADI_PRES WELLINGTON_LAT WELLINGTON_LON WELLINGTON_WIND WELLINGTON_PRES DS824_LAT DS824_LON DS824_STAGE DS824_WIND DS824_PRES TD9636_LAT TD9636_LON TD9636_STAGE TD9636_WIND TD9636_PRES TD9635_LAT TD9635_LON TD9635_WIND TD9635_PRES TD9635_ROCI NEUMANN_LAT NEUMANN_LON NEUMANN_CLASS NEUMANN_WIND NEUMANN_PRES MLC_LAT MLC_LON MLC_CLASS MLC_WIND MLC_PRES USA_GUST BOM_GUST BOM_GUST_PER REUNION_GUST REUNION_GUST_PER USA_SEAHGT USA_SEARAD_NE USA_SEARAD_SE USA_SEARAD_SW USA_SEARAD_NW STORM_SPEED STORM_DIR
1956257N18131 1956 91 WP MM FREDA 1956-09-13 00:00:00 TS 17.6500 131.300 1006 tokyo main 852 842 OOO______OOO__ jtwc_wp WP131956 17.7000 131.300 30 -1 17.6000 131.300 2 1006 0 0 0 17.5000 131.300 1 29 1006 17.7000 131.300 TC 30 17.7000 131.300 1 30 17.7000 131.300 30 1003 60 6 326
1956257N18131 1956 91 WP MM FREDA 1956-09-13 03:00:00 TS 17.9147 131.115 main 844 838 PPP______PPP__ WP131956 17.9150 131.175 30 -1 17.9725 131.060 2 1003 0 0 17.9302 130.985 1 33 1003 17.9150 131.175 TC 30 17.8409 131.117 1 30 17.9150 131.175 30 1002 60 6 323
1956257N18131 1956 91 WP MM FREDA 1956-09-13 06:00:00 TS 18.1492 130.905 1000 tokyo main 838 833 OOO______OPO__ jtwc_wp WP131956 18.1000 131.000 30 -1 18.3000 130.800 2 1000 0 0 0 18.3000 130.700 2 38 1000 18.1000 131.000 TC 30 17.9953 130.928 1 30 18.1000 131.000 30 1002 60 6 314
1956257N18131 1956 91 WP MM FREDA 1956-09-13 09:00:00 TS 18.3391 130.656 main 833 821 PPP______PPP__ WP131956 18.2426 130.750 30 -1 18.5575 130.507 2 1000 0 0 18.5724 130.457 2 38 1000 18.2426 130.750 TC 30 18.1771 130.724 1 30 18.2426 130.750 30 1001 60 6 309
1956257N18131 1956 91 WP MM FREDA 1956-09-13 12:00:00 TS 18.5333 130.400 1000 tokyo main 821 819 OOO______OOO__ jtwc_wp WP131956 18.4000 130.500 30 -1 18.8000 130.200 2 1000 0 0 0 18.8000 130.200 2 38 1000 18.4000 130.500 TC 30 18.4000 130.500 1 30 18.4000 130.500 30 1001 60 6 315
1956257N18131 1956 91 WP MM FREDA 1956-09-13 15:00:00 TS 18.7827 130.194 main 826 813 PPP______PPP__ WP131956 18.6197 130.387 30 -1 19.1075 129.893 2 1000 0 0 19.0575 129.865 2 43 999 18.6197 130.387 TC 30 18.6718 130.247 1 38 18.6197 130.387 30 1000 60 7 321
1956257N18131 1956 91 WP MM FREDA 1956-09-13 18:00:00 TS 19.0628 129.942 1000 tokyo main 804 774 OOO______OPO__ jtwc_wp WP131956 18.9000 130.200 30 -1 19.4000 129.600 2 1000 0 0 0 19.3000 129.500 3 48 998 18.9000 130.200 TC 30 18.9767 129.955 1 47 18.9000 130.200 30 1000 60 8 315
1956257N18131 1956 91 WP MM FREDA 1956-09-13 21:00:00 TS 19.3697 129.576 main 776 727 PPP______PPP__ WP131956 19.2576 129.768 47 0 19.6372 129.380 2 995 0 0 19.5148 129.165 3 53 995 19.2576 129.768 TC 47 19.2934 129.610 1 56 19.2576 129.768 47 999 60 10 307
1956257N18131 1956 91 WP MM FREDA 1956-09-14 00:00:00 TS 19.6500 129.117 990 tokyo main 729 680 OOO______OOO__ jtwc_wp WP131956 19.6000 129.200 65 1 19.8000 129.100 9 990 0 0 0 19.7000 128.800 3 58 992 19.6000 129.200 TC 65 19.6000 129.200 3 65 19.6000 129.200 65 999 60 10 295
1956257N18131 1956 91 WP MM FREDA 1956-09-14 03:00:00 TS 19.8166 128.576 main 680 631 PPP______PPP__ WP131956 19.8076 128.600 65 1 19.8127 128.622 9 990 0 0 19.8276 128.342 3 63 991 19.8076 128.600 TC 65 19.8367 128.694 3 65 19.8076 128.600 65 995 60 11 288
1956257N18131 1956 91 WP MM FREDA 1956-09-14 06:00:00 TS 19.9939 128.021 990 tokyo main 624 591 OOO______OPO__ jtwc_wp WP131956 20.0000 128.000 65 1 19.9000 128.100 9 990 0 0 0 20.0000 127.900 4 68 990 20.0000 128.000 TC 65 20.0636 128.129 3 65 20.0000 128.000 65 991 60 11 296
1956257N18131 1956 91 WP MM FREDA 1956-09-14 09:00:00 TS 20.2879 127.544 main 585 560 PPP______PPP__ WP131956 20.2698 127.477 65 1 20.2973 127.693 9 990 0 0 20.3122 127.592 4 68 989 20.2698 127.477 TC 65 20.3085 127.550 3 65 20.2698 127.477 65 990 90 11 307
1956257N18131 1956 91 WP MM FREDA 1956-09-14 12:00:00 TS 20.6500 127.100 990 tokyo main 564 544 OOO______OOO__ jtwc_wp WP131956 20.6000 127.000 65 1 20.8000 127.300 9 990 0 0 0 20.7000 127.300 4 68 989 20.6000 127.000 TC 65 20.6000 127.000 4 65 20.6000 127.000 65 990 120 11 312
1956257N18131 1956 91 WP MM FREDA 1956-09-14 15:00:00 TS 21.0364 126.658 main 544 528 PPP______PPP__ WP131956 20.9774 126.535 65 1 21.2074 126.865 9 990 0 0 21.0848 126.945 4 68 988 20.9774 126.535 TC 65 20.9943 126.531 4 67 20.9774 126.535 65 989 120 12 314
1956257N18131 1956 91 WP MM FREDA 1956-09-14 18:00:00 TS 21.4557 126.216 990 tokyo main 525 471 OOO______OPO__ jtwc_wp WP131956 21.4000 126.100 65 1 21.6000 126.400 9 990 0 0 0 21.5000 126.500 4 68 988 21.4000 126.100 TC 65 21.4342 126.098 4 70 21.4000 126.100 65 988 120 12 316
1956257N18131 1956 91 WP MM FREDA 1956-09-14 21:00:00 TS 21.9070 125.759 main 471 409 PPP______PPP__ WP131956 21.8574 125.685 70 1 22.0149 125.907 9 990 0 0 21.9729 125.901 4 72 987 21.8574 125.685 TC 70 21.8820 125.691 4 72 21.8574 125.685 70 987 120 12 316
1956257N18131 1956 91 WP MM FREDA 1956-09-15 00:00:00 TS 22.3333 125.317 990 tokyo main 409 361 OOO______OOO__ jtwc_wp WP131956 22.3000 125.300 75 1 22.4000 125.400 9 990 0 0 0 22.4000 125.300 4 77 987 22.3000 125.300 TC 75 22.3000 125.300 4 75 22.3000 125.300 75 986 120 11 315
1956257N18131 1956 91 WP MM FREDA 1956-09-15 03:00:00 TS 22.6860 124.916 main 361 321 PPP______PPP__ WP131956 22.6798 124.950 77 1 22.7375 124.885 9 987 0 0 22.6871 124.869 4 77 983 22.6798 124.950 TC 77 22.6519 124.894 4 77 22.6798 124.950 77 986 120 10 312
1956257N18131 1956 91 WP MM FREDA 1956-09-15 06:00:00 TS 22.9779 124.534 985 tokyo main 313 266 OOO______OPO__ jtwc_wp WP131956 23.0000 124.600 80 1 23.0000 124.400 9 985 0 0 0 22.9000 124.500 4 77 980 23.0000 124.600 TC 80 22.9672 124.504 4 80 23.0000 124.600 80 986 120 9 306
1956257N18131 1956 91 WP MM FREDA 1956-09-15 09:00:00 TS 23.2232 124.126 main 266 228 PPP______PPP__ WP131956 23.2651 124.192 82 1 23.1874 123.962 9 982 0 0 23.1075 124.077 4 82 976 23.2651 124.192 TC 82 23.2489 124.138 4 82 23.2651 124.192 82 985 120 9 302
1956257N18131 1956 91 WP MM FREDA 1956-09-15 12:00:00 TS 23.4333 123.750 980 tokyo main 228 191 OOO______OOO__ jtwc_wp WP131956 23.5000 123.800 85 2 23.3000 123.600 9 980 0 0 0 23.3000 123.700 5 87 972 23.5000 123.800 TC 85 23.5000 123.800 4 85 23.5000 123.800 85 984 120 7 305
1956257N18131 1956 91 WP MM FREDA 1956-09-15 15:00:00 TS 23.6474 123.456 main 191 153 PPP______PPP__ WP131956 23.7649 123.477 82 1 23.3497 123.350 9 980 0 0 23.4998 123.435 5 92 971 23.7649 123.477 TC 82 23.7401 123.520 4 83 23.7649 123.477 83 982 120 7 309
1956257N18131 1956 91 WP MM FREDA 1956-09-15 18:00:00 TS 23.8419 123.194 980 tokyo main 153 124 OOO______OPO__ jtwc_wp WP131956 24.0000 123.200 80 1 23.4000 123.100 9 980 0 0 0 23.7000 123.200 5 97 970 24.0000 123.200 TC 80 23.9514 123.264 4 82 24.0000 123.200 82 980 120 6 307
1956257N18131 1956 91 WP MM FREDA 1956-09-15 21:00:00 TS 24.0072 122.935 main 115 78 PPP______PPP__ WP131956 24.1571 122.987 80 1 23.5425 122.723 9 980 0 0 23.8924 122.922 5 97 970 24.1571 122.987 TC 80 24.1370 123.001 4 81 24.1571 122.987 81 979 150 6 302
1956257N18131 1956 91 WP MM FREDA 1956-09-16 00:00:00 TS 24.1667 122.617 980 tokyo main 78 32 OOO______OOO__ jtwc_wp WP131956 24.3000 122.700 80 1 23.7000 122.300 9 980 0 0 0 24.1000 122.600 5 97 970 24.3000 122.700 TC 80 24.3000 122.700 4 80 24.3000 122.700 80 978 180 8 297
1956257N18131 1956 91 WP MM FREDA 1956-09-16 03:00:00 TS 24.3745 122.144 main 23 0 PPP______PPP__ WP131956 24.5155 122.158 72 1 23.8225 121.878 9 980 0 0 24.4025 122.216 5 87 975 24.5155 122.158 TC 72 24.4755 122.298 4 76 24.5155 122.158 72 977 180 9 293
1956257N18131 1956 91 WP MM FREDA 1956-09-16 06:00:00 TS 24.5376 121.660 980 tokyo main 0 0 OOO______OPO__ jtwc_wp WP131956 24.7000 121.600 65 1 23.9000 121.500 9 980 0 0 0 24.6000 121.800 4 77 980 24.7000 121.600 TC 65 24.6257 121.858 4 72 24.7000 121.600 65 977 180 8 286
1956257N18131 1956 91 WP MM FREDA 1956-09-16 09:00:00 TS 24.5861 121.308 main 0 0 PPP______PPP__ WP131956 24.7871 121.270 65 1 23.9073 121.227 9 985 0 0 24.5099 121.400 4 67 985 24.7871 121.270 TC 65 24.7380 121.414 4 68 24.7871 121.270 65 978 150 6 273
1956257N18131 1956 91 WP MM FREDA 1956-09-16 12:00:00 TS 24.5667 121.000 990 tokyo main 0 0 OOO______OOO__ jtwc_wp WP131956 24.8000 121.000 65 1 23.9000 121.000 9 990 0 0 0 24.3000 121.000 3 58 990 24.8000 121.000 TC 65 24.8000 121.000 4 65 24.8000 121.000 65 979 120 6 265
1956257N18131 1956 91 WP MM FREDA 1956-09-16 15:00:00 TS 24.5321 120.653 main 0 0 PPP______PPP__ WP131956 24.7651 120.642 65 1 23.9500 120.750 9 990 0 0 24.1276 120.570 3 58 990 24.7651 120.642 TC 65 24.8199 120.672 4 62 24.7651 120.642 65 980 120 6 262
1956257N18131 1956 91 WP MM FREDA 1956-09-16 18:00:00 TS 24.4815 120.330 990 tokyo main 32 32 OOO______OPO__ jtwc_wp WP131956 24.7000 120.300 65 1 24.0000 120.500 9 990 0 0 0 24.0000 120.200 3 58 990 24.7000 120.300 TC 65 24.7890 120.377 4 60 24.7000 120.300 65 982 120 5 261
1956257N18131 1956 91 WP MM FREDA 1956-09-16 21:00:00 TS 24.4513 120.070 main 51 45 PPP______PPP__ WP131956 24.6723 120.043 60 0 24.0075 120.242 9 992 0 0 23.9699 119.955 3 58 990 24.6723 120.043 TC 60 24.7137 120.094 4 57 24.6723 120.043 60 983 120 5 260
1956257N18131 1956 91 WP MM FREDA 1956-09-17 00:00:00 TS 24.4000 119.833 994 tokyo main 67 67 OOO______OOO__ jtwc_wp WP131956 24.6000 119.800 55 0 24.0000 120.000 9 994 0 0 0 24.0000 119.800 3 58 990 24.6000 119.800 TC 55 24.6000 119.800 2 55 24.6000 119.800 55 984 120 5 250
1956257N18131 1956 91 WP MM FREDA 1956-09-17 03:00:00 TS 24.2845 119.581 main 78 75 PPP______PPP__ WP131956 24.4149 119.522 52 0 24.0000 119.785 9 994 0 0 24.0499 119.715 3 58 990 24.4149 119.522 TC 52 24.4127 119.419 2 53 24.4149 119.522 52 985 150 5 243
1956257N18131 1956 91 WP MM FREDA 1956-09-17 06:00:00 TS 24.1497 119.305 994 tokyo main 82 67 OOO______OPO__ jtwc_wp WP131956 24.2000 119.200 50 0 24.0000 119.600 9 994 0 0 0 24.1000 119.600 3 58 990 24.2000 119.200 TC 50 24.1982 119.031 2 52 24.2000 119.200 50 987 180 6 245
1956257N18131 1956 91 WP MM FREDA 1956-09-17 09:00:00 TS 24.0246 118.971 main 69 56 PPP______PPP__ WP131956 24.0127 118.792 50 0 23.9999 119.458 9 994 0 0 24.1002 119.315 3 53 990 24.0127 118.792 TC 50 24.0095 118.678 2 51 24.0127 118.792 50 988 180 6 252
1956257N18131 1956 91 WP MM FREDA 1956-09-17 12:00:00 TS 23.9500 118.650 994 tokyo main 56 45 OOO______OOO__ jtwc_wp WP131956 23.9000 118.400 50 0 24.0000 119.300 9 994 0 0 0 24.1000 119.000 3 48 990 23.9000 118.400 TC 50 23.9000 118.400 2 50 23.9000 118.400 50 990 180 5 263
1956257N18131 1956 91 WP MM FREDA 1956-09-17 15:00:00 TS 23.9585 118.380 main 45 30 PPP______PPP__ WP131956 23.8974 118.075 47 0 24.0001 119.050 9 994 0 0 24.1499 118.778 3 48 990 23.8974 118.075 TC 47 23.9087 118.225 2 48 23.8974 118.075 47 991 180 4 283
1956257N18131 1956 91 WP MM FREDA 1956-09-17 18:00:00 TS 24.0387 118.223 994 tokyo main 30 23 OOO______OPO__ jtwc_wp WP131956 24.0000 117.900 45 0 24.0000 118.800 9 994 0 0 0 24.2000 118.600 3 48 991 24.0000 117.900 TC 45 24.0170 118.136 2 47 24.0000 117.900 45 992 180 2 325
1956257N18131 1956 91 WP MM FREDA 1956-09-17 21:00:00 TS 24.1556 118.227 main 15 10 PPP______PPP__ WP131956 24.1999 118.007 45 0 23.9923 118.665 9 994 0 0 24.2000 118.435 3 48 991 24.1999 118.007 TC 45 24.1918 118.104 2 46 24.1801 117.937 45 993 180 2 0
1956257N18131 1956 91 WP MM FREDA 1956-09-18 00:00:00 TS 24.2667 118.233 994 tokyo main 10 0 OOO______OOO__ jtwc_wp WP131956 24.4000 118.100 45 0 24.0000 118.500 9 994 0 0 0 24.2000 118.300 3 48 991 24.4000 118.100 TC 45 24.4000 118.100 2 45 24.4000 118.100 45 995 180 2 309
1956257N18131 1956 91 WP MM FREDA 1956-09-18 03:00:00 TS 24.2906 118.042 main 0 0 PPP______P____ WP131956 24.4424 117.890 42 0 24.0351 118.180 9 994 0 0 24.2424 118.207 3 48 991 24.4424 117.890 TC 42 2 5 280
1956257N18131 1956 91 WP MM FREDA 1956-09-18 06:00:00 TS 24.3500 117.725 994 tokyo main 0 0 OOO______O____ jtwc_wp WP131956 24.5000 117.500 40 0 24.1000 117.800 9 994 0 0 0 24.3000 118.100 3 48 991 24.5000 117.500 TC 40 2 7 287
1956257N18131 1956 91 WP MM FREDA 1956-09-18 09:00:00 TS 24.4901 117.343 main 0 0 PPP______P____ WP131956 24.7203 117.008 37 0 24.1924 117.450 9 995 0 0 24.3276 117.907 3 48 992 24.7203 117.008 TC 37 2 8 295
1956257N18131 1956 91 WP MM FREDA 1956-09-18 12:00:00 TS 24.6750 116.950 996 tokyo main 0 0 OOO______O____ jtwc_wp WP131956 25.0000 116.500 35 0 24.3000 117.100 9 996 0 0 0 24.4000 117.700 3 48 994 25.0000 116.500 TC 35 7 300
1956257N18131 1956 91 WP MM FREDA 1956-09-18 15:00:00 TS 24.8617 116.635 main 0 0 PPP______P____ WP131956 25.2497 116.135 32 -1 24.3775 116.742 9 996 0 0 24.5700 117.528 3 43 995 25.2497 116.135 TC 32 6 306
1956257N18131 1956 91 WP MM FREDA 1956-09-18 18:00:00 TS 25.0143 116.429 996 tokyo main 0 0 OOO______O____ jtwc_wp WP131956 25.5000 115.800 30 -1 24.5000 116.400 9 996 0 0 0 24.8000 117.400 2 38 997 25.5000 115.800 TC 30 5 310
1956257N18131 1956 91 WP MM FREDA 1956-09-18 21:00:00 TS 25.1610 116.247 main 0 0 PPP______P____ WP131956 25.7504 115.418 25 -1 24.6900 116.003 9 996 0 0 25.0425 117.320 2 28 998 25.7504 115.418 TC 25 4 330
1956257N18131 1956 91 WP MM FREDA 1956-09-19 00:00:00 TS 25.3200 116.240 996 tokyo main 0 0 OOO______O____ jtwc_wp WP131956 26.0000 115.000 20 -1 25.0000 115.800 9 996 0 0 0 25.3000 117.300 0 19 999 26.0000 115.000 TC 20 5 48
1956257N18131 1956 91 WP MM FREDA 1956-09-19 03:00:00 TS 25.4950 116.665 main 0 0 _PP___________ WP131956 -1 25.4625 115.994 9 997 0 0 25.5275 117.335 0 18 999 TC 8 46
1956257N18131 1956 91 WP MM FREDA 1956-09-19 06:00:00 TS 25.9000 116.900 998 tokyo main 0 0 _OO___________ -1 26.0000 116.400 9 998 0 0 0 25.8000 117.400 0 17 999 9 26
1956257N18131 1956 91 WP MM FREDA 1956-09-19 09:00:00 TS 26.3049 117.103 main 0 0 _PP___________ -1 26.4624 116.771 9 999 0 0 26.1475 117.435 0 17 1000 10 24
1956257N18131 1956 91 WP MM FREDA 1956-09-19 12:00:00 MX 26.8000 117.350 1000 tokyo main 0 0 _OO___________ -1 27.0000 117.200 6 1000 0 0 0 26.6000 117.500 0 17 1002 13 24
1956257N18131 1956 91 WP MM FREDA 1956-09-19 15:00:00 MX 27.4414 117.678 main 0 0 _PP___________ -1 27.7280 117.758 6 1002 0 0 27.1548 117.598 0 17 1002 15 23
1956257N18131 1956 91 WP MM FREDA 1956-09-19 18:00:00 MX 28.1500 118.000 1004 tokyo main 0 0 _OO___________ -1 28.5000 118.200 6 1004 0 0 0 27.8000 117.800 0 17 1003 15 17
1956257N18131 1956 91 WP MM FREDA 1956-09-19 21:00:00 MX 28.8547 118.179 main 0 0 _PP___________ -1 29.1945 118.210 6 1005 0 0 28.5150 118.147 0 17 1003 14 14
1956257N18131 1956 91 WP MM FREDA 1956-09-20 00:00:00 MX 29.5000 118.400 1006 tokyo main 0 0 _OO___________ -1 29.8000 118.200 6 1006 0 0 0 29.2000 118.600 0 17 1003 13 25
1956257N18131 1956 91 WP MM FREDA 1956-09-20 03:00:00 MX 30.0272 118.800 main 0 0 _PP___________ -1 30.3097 118.537 6 1005 0 0 29.7447 119.063 0 18 1003 13 41
1956257N18131 1956 91 WP MM FREDA 1956-09-20 06:00:00 ET 30.4500 119.350 1004 tokyo main 0 0 _OO___________ -1 30.7000 119.100 6 1004 0 0 0 30.2000 119.600 9 19 1003 13 53
1956257N18131 1956 91 WP MM FREDA 1956-09-20 09:00:00 ET 30.8089 120.024 main 0 0 _PP___________ -1 30.9950 119.790 6 1004 0 0 30.6229 120.258 9 19 1003 14 62
1956257N18131 1956 91 WP MM FREDA 1956-09-20 12:00:00 ET 31.1000 120.750 1004 tokyo main 0 0 _OO___________ -1 31.2000 120.600 6 1004 0 0 0 31.0000 120.900 9 19 1004 13 64
1956257N18131 1956 91 WP MM FREDA 1956-09-20 15:00:00 ET 31.3720 121.397 main 0 0 _PP___________ -1 31.3649 121.443 6 1004 0 0 31.3791 121.351 9 19 1004 12 66
1956257N18131 1956 91 WP MM FREDA 1956-09-20 18:00:00 ET 31.6000 122.050 1004 tokyo main 21 21 _OO___________ -1 31.5000 122.300 6 1004 0 0 0 31.7000 121.800 9 19 1004 12 73
1956257N18131 1956 91 WP MM FREDA 1956-09-20 21:00:00 ET 31.7335 122.769 main 85 85 _PP___________ -1 31.5826 123.154 6 1004 0 0 31.8844 122.384 9 19 1004 13 74
1956257N18131 1956 91 WP MM FREDA 1956-09-21 00:00:00 ET 31.9500 123.500 1004 tokyo main 154 152 _OO___________ -1 31.8000 123.900 6 1004 0 0 0 32.1000 123.100 9 19 1004 14 60
1956257N18131 1956 91 WP MM FREDA 1956-09-21 03:00:00 ET 32.4176 124.156 main 211 125 _PP___________ -1 32.3224 124.343 6 1004 0 0 32.5128 123.969 9 19 1004 16 48
1956257N18131 1956 91 WP MM FREDA 1956-09-21 06:00:00 ET 33.0000 124.900 1004 tokyo main 125 38 _OO___________ -1 33.0000 124.900 6 1004 0 0 0 33.0000 124.900 9 19 1004 19 52
1956257N18131 1956 91 WP MM FREDA 1956-09-21 09:00:00 ET 33.5928 125.930 main 38 24 _PP___________ -1 33.7216 126.117 6 1004 0 0 33.4639 125.743 9 19 1004 20 57
1956257N18131 1956 91 WP MM FREDA 1956-09-21 12:00:00 ET 34.1000 126.950 1004 tokyo main 34 11 _OO___________ -1 34.3000 127.300 6 1004 0 0 0 33.9000 126.600 9 19 1004 14 61
1956257N18131 1956 91 WP MM FREDA 1956-09-21 15:00:00 ET 34.2977 127.441 main 14 14 _PP___________ -1 34.3718 127.463 6 1004 0 0 34.2236 127.420 9 19 1004 12 65
1956257N18131 1956 91 WP MM FREDA 1956-09-21 18:00:00 ET 34.6000 128.250 1004 tokyo main 22 9 _OO___________ -1 34.6000 128.000 6 1004 0 0 0 34.6000 128.500 9 19 1004 25 63
1956257N18131 1956 91 WP MM FREDA 1956-09-21 21:00:00 ET 35.4405 130.151 main 72 72 _PP___________ -1 35.7222 130.283 6 1005 0 0 35.1589 130.020 9 19 1004 39 64
1956257N18131 1956 91 WP MM FREDA 1956-09-22 00:00:00 ET 36.3000 132.550 1007 tokyo main 93 90 _OO___________ -1 36.8000 133.100 6 1007 0 0 0 35.8000 132.000 9 19 1005 39 70
1956257N18131 1956 91 WP MM FREDA 1956-09-22 03:00:00 ET 36.8061 134.750 main 127 0 _PP___________ -1 37.1251 135.178 6 1007 0 0 36.4870 134.322 9 19 1006 36 79
1956257N18131 1956 91 WP MM FREDA 1956-09-22 06:00:00 ET 37.0000 137.000 1008 tokyo main 0 0 _OO___________ -1 37.0000 137.000 6 1008 0 0 0 37.0000 137.000 9 19 1008 36 91
1956257N18131 1956 91 WP MM FREDA 1956-09-22 09:00:00 ET 36.7305 139.202 main 0 0 _PP___________ -1 36.4009 138.506 6 1008 0 0 37.0601 139.897 9 21 1007 37 97
1956257N18131 1956 91 WP MM FREDA 1956-09-22 12:00:00 ET 36.5500 141.650 1008 tokyo main 76 77 _OO___________ -1 36.1000 140.500 6 1008 0 0 0 37.0000 142.800 9 23 1006 45 86
1956257N18131 1956 91 WP MM FREDA 1956-09-22 15:00:00 ET 37.0469 144.864 main 331 331 _PP___________ -1 37.0188 144.226 6 1006 0 0 37.0749 145.503 9 23 1004 52 77
1956257N18131 1956 91 WP MM FREDA 1956-09-22 18:00:00 ET 37.7000 148.000 1004 tokyo main 549 549 _OO___________ -1 38.0000 148.000 6 1004 0 0 0 37.4000 148.000 9 23 1003 42 77
1956257N18131 1956 91 WP MM FREDA 1956-09-22 21:00:00 ET 37.9834 150.106 main 695 695 _PP___________ -1 37.8939 149.909 6 1003 0 0 38.0730 150.303 9 26 1002 31 75
1956257N18131 1956 91 WP MM FREDA 1956-09-23 00:00:00 ET 38.5000 151.850 1002 tokyo main 748 736 _OO___________ -1 38.0000 151.200 6 1002 0 0 0 39.0000 152.500 9 29 1002 34 60
1956257N18131 1956 91 WP MM FREDA 1956-09-23 03:00:00 ET 39.7339 153.918 main 739 709 _PP___________ -1 39.4217 152.982 6 1002 0 0 40.0461 154.855 9 29 1001 40 52
1956257N18131 1956 91 WP MM FREDA 1956-09-23 06:00:00 ET 41.0000 156.000 1002 tokyo main 719 716 _OO___________ -1 41.0000 155.000 6 1002 0 0 0 41.0000 157.000 9 29 1000 37 59
1956257N18131 1956 91 WP MM FREDA 1956-09-23 09:00:00 ET 41.6444 158.085 main 791 791 _PP___________ -1 41.6975 157.512 6 1000 0 0 41.5913 158.659 9 33 999 30 70
1956257N18131 1956 91 WP MM FREDA 1956-09-23 12:00:00 ET 42.0000 159.750 998 tokyo main 875 875 _OO___________ -1 42.0000 159.500 6 998 0 0 0 42.0000 160.000 9 38 998 19 70
1956257N18131 1956 91 WP MM FREDA 1956-09-23 15:00:00 ET 42.2981 160.481 main 905 905 _PP___________ -1 42.1965 159.672 6 994 0 0 42.3997 161.289 9 38 994 12 61
1956257N18131 1956 91 WP MM FREDA 1956-09-23 18:00:00 ET 42.6000 161.200 990 tokyo main 933 927 _OO___________ -1 42.5000 159.900 6 990 0 0 0 42.7000 162.500 9 38 990 20 66
1956257N18131 1956 91 WP MM FREDA 1956-09-23 21:00:00 ET 43.1250 162.968 main 954 949 _PP___________ -1 43.3778 162.147 6 989 0 0 42.8722 163.790 9 43 989 29 72
1956257N18131 1956 91 WP MM FREDA 1956-09-24 00:00:00 ET 43.5000 165.000 988 tokyo main 1012 1012 _OO___________ -1 44.0000 165.000 6 988 0 0 0 43.0000 165.000 9 48 988 26 85
1956257N18131 1956 91 WP MM FREDA 1956-09-24 03:00:00 ET 43.3526 166.569 main 1106 1106 _PP___________ -1 43.5351 167.254 6 984 0 0 43.1700 165.884 9 48 984 22 98
1956257N18131 1956 91 WP MM FREDA 1956-09-24 06:00:00 ET 43.2000 168.000 980 tokyo main 1198 1198 _OO___________ -1 43.0000 169.000 6 980 0 0 0 43.4000 167.000 9 48 980 21 90
1956257N18131 1956 91 WP MM FREDA 1956-09-24 09:00:00 ET 43.3698 169.519 main 1254 1254 _PP___________ -1 43.1900 170.066 6 980 0 0 43.5496 168.971 9 53 980 24 70
1956257N18131 1956 91 WP MM FREDA 1956-09-24 12:00:00 ET 44.0000 171.100 980 tokyo main 1289 1272 _OO___________ -1 44.0000 171.100 6 980 0 0 0 44.0000 171.100 9 58 980 31 53
1956257N18131 1956 91 WP MM FREDA 1956-09-24 15:00:00 ET 45.2710 172.985 main 1269 1243 _PP___________ -1 45.4359 173.100 6 977 0 0 45.1061 172.869 9 58 977 37 42
1956257N18131 1956 91 WP MM FREDA 1956-09-24 18:00:00 ET 46.7500 174.650 975 tokyo main 1239 1186 _OO___________ -1 47.0000 175.000 6 975 0 0 0 46.5000 174.300 9 58 975 32 32
1956257N18131 1956 91 WP MM FREDA 1956-09-24 21:00:00 ET 47.9475 175.458 main 1191 1139 _PP___________ -1 48.0897 175.666 6 975 0 0 47.8053 175.250 9 58 975 24 22
1956257N18131 1956 91 WP MM FREDA 1956-09-25 00:00:00 ET 49.0000 176.000 976 tokyo main 1135 1033 _OO___________ -1 49.0000 176.000 6 976 0 0 0 49.0000 176.000 9 58 976 22 26
1956257N18131 1956 91 WP MM FREDA 1956-09-25 03:00:00 ET 49.9645 176.969 main 1021 927 _PP___________ -1 49.9798 176.992 6 979 0 0 49.9340 176.923 9 58 979 21 37
1956257N18131 1956 91 WP MM FREDA 1956-09-25 06:00:00 ET 50.7000 178.000 982 tokyo main 927 893 _OO___________ -1 50.7000 178.000 6 982 0 0 0 50.7000 178.000 9 58 982 13 45
1956257N18131 1956 91 WP MM FREDA 1956-09-25 09:00:00 ET 50.8978 178.437 main 893 850 _P____________ -1 50.8978 178.437 6 982 0 0 9 7 65
1956257N18131 1956 91 WP MM FREDA 1956-09-25 12:00:00 ET 51.0000 179.000 982 tokyo main 850 757 _O____________ -1 51.0000 179.000 6 982 0 0 0 12 66
1956257N18131 1956 91 EP CP FREDA 1956-09-25 15:00:00 ET 51.4038 180.258 main 750 627 _P____________ -1 51.4038 -179.742 6 981 0 0 21 62
1956257N18131 1956 91 EP CP FREDA 1956-09-25 18:00:00 ET 52.0000 182.000 main 621 _O____________ -1 52.0000 182.000 6 980 0 0 0 25 61

デジタル台風データ・検索

IBTrACS Databaseについて

本データベースは、米国NOAAが公開する1842年以降の世界の熱帯低気圧のベストトラックデータアーカイブInternational Best Track Archive for Climate Stewardship (IBTrACS)を、ウェブで閲覧しやすい形式に変換したものです。

最終更新日:2021-10-08